メインページ
METAR-TAF:

METAR-TAF

空港 :

コペンハーゲン, デンマーク

コペンハーゲン空港

緯度: 55-37N, 経度: 012-39E, 海抜: 5m

現時点の気象観測

当レポートは26分前の09:20(UTC)に作成
北西の風 16kt
気温 8°C
湿度 66%
気圧 1027 hPa
視程10km以上
高度2300ftの千切れ雲あり

METAR: EKCH 250920Z 32016KT 9999 BKN023 08/02 Q1027 NOSIG

時間: 10:46 (09:46 UTC)

予報

当レポートは4時間31分前の05:15(UTC)に作成
予報は25日の 06時(UTC)から 26日の 06時(UTC)まで有効
西/北西の風 12kt
視程10km以上
1,500メートル以下は雲なし、積乱雲なし
25日の 06時(UTC)から 25日の 08時(UTC)まで一時的に
視程: 4000m
高度800ftの千切れ雲あり
26日の 04時(UTC)から 26日の 06時(UTC)まで一時的に
視程: 1200m
高度400ftの千切れ雲あり

TAF: EKCH 250515Z 2506/2606 29012KT CAVOK TEMPO 2506/2508 4000 BR BKN008 TEMPO 2604/2606 1200 BR BKN004

4,000以上の空港の気象観測と天気予報(METAR報とTAF報)

利用可能な観測所は地図上に黄色い丸と赤い丸で示す。

丸の上にカーソルを重ねると観測所名を参照できる。

次にクリックすると気象観測と天気予報を参照できる。

マップの切り替え:黒色「×」印の緑ボタンをクリックして拡大、「-」印の緑ボタンをクリックして縮小、緑色の三角印をクリックして隣りの地図に切り替え


METAR-TAF: